Time;durP1;ratioP1;P1;durP2;ratioP2;P2;SDS_P1;SDS_P2;PMS_P1;PMS_P2;Temp;Humidity;BMP_temperature;BMP_pressure;BME280_temperature;BME280_humidity;BME280_pressure;Samples;Min_cycle;Max_cycle;Signal;HPM_P1;HPM_P2
2021/10/02 00:35:12;;;;;;;59.37;3.40;;;12.00;1.00;;;;;;5136045;27;20419;-70
2021/10/02 00:37:51;;;;;;;58.27;2.80;;;11.90;1.00;;;;;;5135620;27;20554;-70
2021/10/02 00:45:47;;;;;;;59.30;3.57;;;11.90;1.00;;;;;;5135463;27;20554;-70
2021/10/02 00:48:14;;;;;;;58.57;2.70;;;11.90;1.00;;;;;;5135545;27;20979;-70
2021/10/02 00:50:41;;;;;;;59.00;3.77;;;11.90;1.00;;;;;;5135462;27;20447;-70
2021/10/02 00:53:08;;;;;;;58.47;3.10;;;11.90;1.00;;;;;;5135935;27;20470;-70
2021/10/02 00:55:35;;;;;;;58.27;2.53;;;11.90;1.00;;;;;;5135502;27;20452;-71
2021/10/02 00:58:01;;;;;;;58.47;2.60;;;11.90;1.00;;;;;;5135592;27;20550;-71
2021/10/02 01:00:28;;;;;;;58.37;2.77;;;11.90;1.00;;;;;;5135452;27;20498;-71
2021/10/02 01:03:04;;;;;;;58.27;2.67;;;11.90;1.00;;;;;;5135760;27;20444;-71
2021/10/02 01:05:57;;;;;;;59.10;3.13;;;11.90;1.00;;;;;;5135193;27;20446;-71
2021/10/02 01:08:36;;;;;;;59.20;2.80;;;11.90;1.00;;;;;;5130985;27;20559;-71
2021/10/02 01:11:13;;;;;;;58.47;2.90;;;11.90;1.00;;;;;;5135274;27;20527;-71
2021/10/02 01:13:45;;;;;;;58.63;2.60;;;11.90;1.00;;;;;;5135332;27;20446;-71
2021/10/02 01:16:20;;;;;;;58.37;2.63;;;11.90;1.00;;;;;;5134938;27;20482;-71
2021/10/02 01:18:54;;;;;;;58.33;2.60;;;11.90;1.00;;;;;;5134703;27;20518;-71
2021/10/02 01:21:47;;;;;;;58.20;2.70;;;11.90;1.00;;;;;;5135060;27;20452;-71
2021/10/02 01:24:27;;;;;;;58.27;2.50;;;11.90;1.00;;;;;;5135240;27;20448;-70
2021/10/02 01:27:17;;;;;;;58.33;2.60;;;11.90;1.00;;;;;;5134988;27;20551;-70
2021/10/02 01:29:46;;;;;;;58.27;2.67;;;11.90;1.00;;;;;;5135116;27;21034;-70
2021/10/02 01:32:18;;;;;;;58.33;2.73;;;11.90;1.00;;;;;;5134913;27;20448;-70
2021/10/02 01:34:58;;;;;;;58.43;2.80;;;11.90;1.00;;;;;;5133490;27;20455;-70
2021/10/02 01:37:36;;;;;;;58.37;2.57;;;11.90;1.00;;;;;;5134304;27;20468;-70
2021/10/02 01:48:22;;;;;;;58.27;2.87;;;11.90;1.00;;;;;;5134483;27;20819;-71
2021/10/02 01:50:51;;;;;;;58.47;2.87;;;11.90;1.00;;;;;;5134546;27;20444;-70
2021/10/02 01:53:19;;;;;;;58.27;2.77;;;11.90;1.00;;;;;;5134547;27;20845;-70
2021/10/02 01:55:49;;;;;;;59.10;3.80;;;11.90;1.00;;;;;;5133983;27;20441;-70
2021/10/02 01:58:19;;;;;;;58.90;3.60;;;11.90;1.00;;;;;;5134394;27;20464;-70
2021/10/02 02:00:49;;;;;;;58.30;2.77;;;11.90;1.00;;;;;;5134171;27;20568;-70
2021/10/02 02:03:18;;;;;;;59.33;3.37;;;11.80;1.00;;;;;;5134463;27;20540;-70
2021/10/02 02:05:47;;;;;;;58.47;2.70;;;11.80;1.00;;;;;;5133905;27;20498;-70
2021/10/02 02:08:16;;;;;;;58.67;3.40;;;11.70;1.00;;;;;;5134246;27;20548;-70
2021/10/02 02:10:45;;;;;;;58.27;2.60;;;11.70;1.00;;;;;;5134139;27;20727;-70
2021/10/02 02:13:14;;;;;;;58.17;2.60;;;11.70;1.00;;;;;;5133847;27;20451;-70
2021/10/02 02:15:42;;;;;;;58.37;2.43;;;11.70;1.00;;;;;;5133851;27;20444;-70
2021/10/02 02:18:14;;;;;;;58.27;2.77;;;11.70;1.00;;;;;;5133990;27;20907;-70
2021/10/02 02:20:43;;;;;;;59.10;3.13;;;11.80;1.00;;;;;;5133913;27;20858;-70
2021/10/02 02:23:12;;;;;;;58.97;2.80;;;11.80;1.00;;;;;;5133858;27;20445;-70
2021/10/02 02:25:39;;;;;;;58.43;2.70;;;11.80;1.00;;;;;;5133327;27;20491;-70
2021/10/02 02:28:08;;;;;;;58.13;2.63;;;11.80;1.00;;;;;;5133561;27;20504;-70
2021/10/02 02:30:35;;;;;;;58.27;2.90;;;11.80;1.00;;;;;;5133098;27;20459;-70
2021/10/02 02:33:03;;;;;;;58.17;2.70;;;11.80;1.00;;;;;;5133780;27;20447;-70
2021/10/02 02:35:32;;;;;;;58.30;2.80;;;11.70;1.00;;;;;;5133416;27;20444;-70
2021/10/02 02:37:59;;;;;;;58.37;2.63;;;11.70;1.00;;;;;;5133423;27;20472;-70
2021/10/02 02:40:26;;;;;;;58.43;2.70;;;11.70;1.00;;;;;;5133317;27;20476;-70
2021/10/02 02:42:54;;;;;;;58.40;2.70;;;11.60;1.00;;;;;;5133810;27;20450;-70
2021/10/02 02:45:23;;;;;;;58.23;2.60;;;11.60;1.00;;;;;;5133434;27;20454;-70
2021/10/02 02:47:53;;;;;;;58.43;2.80;;;11.60;1.00;;;;;;5133354;27;20472;-70
2021/10/02 02:50:30;;;;;;;58.70;3.50;;;11.60;1.00;;;;;;5133615;27;20432;-70
2021/10/02 02:53:07;;;;;;;58.47;2.80;;;11.60;1.00;;;;;;5133139;27;20450;-70
2021/10/02 02:55:42;;;;;;;58.30;2.70;;;11.60;1.00;;;;;;5133132;27;20468;-70
2021/10/02 02:58:09;;;;;;;59.10;3.33;;;11.60;1.00;;;;;;5132995;27;20976;-70
2021/10/02 03:00:52;;;;;;;60.47;3.77;;;11.60;1.00;;;;;;5133067;27;20480;-70
2021/10/02 03:03:22;;;;;;;58.23;2.90;;;11.60;1.00;;;;;;5133124;27;20441;-70
2021/10/02 03:05:49;;;;;;;58.03;2.83;;;11.60;1.00;;;;;;5133068;27;20445;-70
2021/10/02 03:08:21;;;;;;;58.33;2.50;;;11.60;1.00;;;;;;5133070;27;20487;-70
2021/10/02 03:10:51;;;;;;;58.57;3.17;;;11.70;1.00;;;;;;5133111;27;20441;-70
2021/10/02 03:13:20;;;;;;;58.27;2.30;;;11.70;1.00;;;;;;5133406;27;20529;-70
2021/10/02 03:15:49;;;;;;;58.30;2.70;;;11.70;1.00;;;;;;5132405;27;20544;-70
2021/10/02 03:18:18;;;;;;;58.90;2.53;;;11.70;1.00;;;;;;5132922;27;20464;-70
2021/10/02 03:20:49;;;;;;;58.13;2.60;;;11.70;1.00;;;;;;5133001;27;20511;-70
2021/10/02 03:23:19;;;;;;;58.50;2.70;;;11.70;1.00;;;;;;5132965;27;20527;-70
2021/10/02 03:25:47;;;;;;;58.27;2.60;;;11.80;1.00;;;;;;5132381;28;20978;-70
2021/10/02 03:28:15;;;;;;;58.37;2.50;;;11.80;1.00;;;;;;5133159;27;20464;-70
2021/10/02 03:30:42;;;;;;;58.07;2.60;;;11.80;1.00;;;;;;5133094;28;20540;-71
2021/10/02 03:33:10;;;;;;;58.90;2.97;;;11.80;1.00;;;;;;5133102;28;20540;-71
2021/10/02 03:35:37;;;;;;;58.13;2.60;;;11.80;1.00;;;;;;5132596;28;20543;-71
2021/10/02 03:38:04;;;;;;;58.50;3.13;;;11.80;1.00;;;;;;5132700;28;20548;-71
2021/10/02 03:40:32;;;;;;;58.47;2.80;;;11.80;1.00;;;;;;5132637;28;20476;-71
2021/10/02 03:43:00;;;;;;;58.70;3.40;;;11.80;1.00;;;;;;5136331;27;20450;-71
2021/10/02 03:45:28;;;;;;;58.30;2.80;;;11.70;1.00;;;;;;5136531;27;20535;-71
2021/10/02 03:47:55;;;;;;;58.20;2.60;;;11.70;1.00;;;;;;5136790;27;20550;-70
2021/10/02 03:50:23;;;;;;;58.37;2.90;;;11.70;1.00;;;;;;5136829;27;20539;-70
2021/10/02 03:52:50;;;;;;;58.07;2.50;;;11.70;1.00;;;;;;5136857;27;20487;-70
2021/10/02 03:55:17;;;;;;;58.27;2.87;;;11.80;1.00;;;;;;5136597;27;20527;-70
2021/10/02 03:57:45;;;;;;;58.37;3.10;;;11.80;1.00;;;;;;5136506;27;20464;-71
2021/10/02 04:00:15;;;;;;;58.03;2.60;;;11.70;1.00;;;;;;5136784;27;20567;-71
2021/10/02 04:02:42;;;;;;;58.37;2.70;;;11.70;1.00;;;;;;5136697;27;20532;-71
2021/10/02 04:05:10;;;;;;;58.37;2.70;;;11.70;1.00;;;;;;5136562;27;20444;-71
2021/10/02 04:07:37;;;;;;;58.20;2.80;;;11.70;1.00;;;;;;5136161;27;20468;-71
2021/10/02 04:10:05;;;;;;;58.30;2.60;;;11.70;1.00;;;;;;5136376;27;20471;-71
2021/10/02 04:12:32;;;;;;;58.57;2.70;;;11.70;1.00;;;;;;5136610;27;20818;-71
2021/10/02 04:15:01;;;;;;;58.17;2.70;;;11.70;1.00;;;;;;5136659;27;20452;-71
2021/10/02 04:17:28;;;;;;;58.47;2.57;;;11.70;1.00;;;;;;5136007;27;20982;-71
2021/10/02 04:19:55;;;;;;;58.40;2.60;;;11.70;1.00;;;;;;5136294;27;20445;-71
2021/10/02 04:22:22;;;;;;;58.60;3.40;;;11.70;1.00;;;;;;5136077;27;20523;-71
2021/10/02 04:24:49;;;;;;;58.20;2.60;;;11.70;1.00;;;;;;5136218;27;20781;-71
2021/10/02 04:27:15;;;;;;;58.90;3.73;;;11.70;1.00;;;;;;5135840;27;20470;-71
2021/10/02 04:29:43;;;;;;;58.27;2.70;;;11.60;1.00;;;;;;5136199;27;20451;-71
2021/10/02 04:32:11;;;;;;;58.27;2.60;;;11.60;1.00;;;;;;5135933;27;20445;-71
2021/10/02 04:34:38;;;;;;;58.37;2.70;;;11.70;1.00;;;;;;5136096;27;20483;-71
2021/10/02 04:37:05;;;;;;;58.47;2.60;;;11.70;1.00;;;;;;5135355;27;20543;-71
2021/10/02 04:39:32;;;;;;;58.13;2.80;;;11.70;1.00;;;;;;5136106;27;20450;-71
2021/10/02 04:41:59;;;;;;;58.90;3.57;;;11.70;1.00;;;;;;5135889;27;20487;-71
2021/10/02 04:44:26;;;;;;;58.27;2.70;;;11.70;1.00;;;;;;5135961;27;20535;-71
2021/10/02 04:46:53;;;;;;;58.07;2.60;;;11.70;1.00;;;;;;5135481;27;20543;-71
2021/10/02 04:49:22;;;;;;;58.30;2.70;;;11.70;1.00;;;;;;5135548;27;20475;-71
2021/10/02 04:51:49;;;;;;;60.10;3.87;;;11.70;1.00;;;;;;5135627;27;20532;-71
2021/10/02 04:54:16;;;;;;;58.30;2.80;;;11.60;1.00;;;;;;5134995;27;20861;-71
2021/10/02 04:56:43;;;;;;;58.33;2.63;;;11.60;1.00;;;;;;5135371;27;20528;-71
2021/10/02 04:59:10;;;;;;;58.17;2.70;;;11.60;1.00;;;;;;5135504;27;20464;-71
2021/10/02 05:01:37;;;;;;;58.47;2.93;;;11.60;1.00;;;;;;5135441;27;20895;-71
2021/10/02 05:04:05;;;;;;;59.00;3.47;;;11.60;1.00;;;;;;5135322;27;20484;-72
2021/10/02 05:06:33;;;;;;;58.17;2.73;;;11.60;1.00;;;;;;5135102;27;20448;-69
2021/10/02 05:09:00;;;;;;;58.67;2.90;;;11.50;1.00;;;;;;5135402;27;20886;-69
2021/10/02 05:11:27;;;;;;;58.17;2.90;;;11.50;1.00;;;;;;5135507;27;20441;-69
2021/10/02 05:13:55;;;;;;;58.17;2.83;;;11.50;1.00;;;;;;5135345;27;20814;-69
2021/10/02 05:16:22;;;;;;;58.80;2.90;;;11.50;1.00;;;;;;5134846;27;20448;-69
2021/10/02 05:18:48;;;;;;;58.33;3.10;;;11.50;1.00;;;;;;5134911;27;20559;-69
2021/10/02 05:21:15;;;;;;;58.03;2.70;;;11.50;1.00;;;;;;5135102;27;20515;-70
2021/10/02 05:23:43;;;;;;;58.33;2.60;;;11.40;1.00;;;;;;5135348;27;20448;-70
2021/10/02 05:26:10;;;;;;;58.37;2.53;;;11.40;1.00;;;;;;5134520;27;20471;-70
2021/10/02 05:28:37;;;;;;;58.47;3.00;;;11.40;1.00;;;;;;5134829;27;20555;-70
2021/10/02 05:31:04;;;;;;;58.47;3.20;;;11.40;1.00;;;;;;5134838;27;20436;-70
2021/10/02 05:33:31;;;;;;;58.53;2.70;;;11.40;1.00;;;;;;5135032;27;20540;-70
2021/10/02 05:35:58;;;;;;;60.30;3.73;;;11.40;1.00;;;;;;5134590;27;20476;-70
2021/10/02 05:38:24;;;;;;;58.40;2.90;;;11.40;1.00;;;;;;5134707;27;21044;-70
2021/10/02 05:40:53;;;;;;;58.57;2.80;;;11.40;1.00;;;;;;5134589;27;20476;-70
2021/10/02 05:43:20;;;;;;;58.37;2.80;;;11.40;1.00;;;;;;5134720;27;20552;-68
2021/10/02 05:45:46;;;;;;;60.13;2.93;;;11.50;1.00;;;;;;5134231;27;20892;-68
2021/10/02 05:48:13;;;;;;;58.33;2.77;;;11.60;1.00;;;;;;5134774;27;20995;-68
2021/10/02 05:50:40;;;;;;;58.50;3.13;;;11.70;1.00;;;;;;5134658;27;20524;-68
2021/10/02 05:53:07;;;;;;;58.67;2.83;;;12.00;1.00;;;;;;5134689;27;20563;-68
2021/10/02 05:55:34;;;;;;;58.37;3.00;;;12.10;1.00;;;;;;5134061;27;20444;-68
2021/10/02 05:58:03;;;;;;;58.03;2.60;;;12.20;1.00;;;;;;5134260;27;20802;-68
2021/10/02 06:00:30;;;;;;;58.17;2.70;;;12.20;1.00;;;;;;5134152;27;20878;-68
2021/10/02 06:02:57;;;;;;;58.23;2.90;;;12.20;1.00;;;;;;5134332;27;21019;-68
2021/10/02 06:05:26;;;;;;;58.30;2.63;;;12.10;1.00;;;;;;5133076;27;20448;-68
2021/10/02 06:07:54;;;;;;;59.00;4.17;;;12.10;1.00;;;;;;5134071;27;20479;-68
2021/10/02 06:10:21;;;;;;;58.40;2.70;;;12.10;1.00;;;;;;5134030;27;20444;-69
2021/10/02 06:12:50;;;;;;;58.33;2.90;;;12.20;1.00;;;;;;5133996;27;20445;-68
2021/10/02 06:15:18;;;;;;;58.70;2.67;;;12.20;1.00;;;;;;5133974;27;20544;-68
2021/10/02 06:17:45;;;;;;;58.07;2.70;;;12.20;1.00;;;;;;5133525;27;20955;-68
2021/10/02 06:20:12;;;;;;;58.40;2.80;;;12.20;1.00;;;;;;5133848;27;20451;-68
2021/10/02 06:22:39;;;;;;;58.77;3.00;;;12.20;1.00;;;;;;5133921;27;20480;-68
2021/10/02 06:25:06;;;;;;;58.57;2.90;;;12.20;1.00;;;;;;5133596;27;20459;-70
2021/10/02 06:27:33;;;;;;;58.27;2.80;;;12.40;1.00;;;;;;5133314;27;20471;-68
2021/10/02 06:30:00;;;;;;;58.20;2.90;;;12.50;1.00;;;;;;5133997;27;20545;-68
2021/10/02 06:32:29;;;;;;;58.17;2.87;;;12.50;1.00;;;;;;5133834;27;20976;-68
2021/10/02 06:34:55;;;;;;;58.40;2.70;;;12.60;1.00;;;;;;5133787;27;20531;-68
2021/10/02 06:37:22;;;;;;;60.83;3.53;;;12.60;1.00;;;;;;5133180;27;20798;-68
2021/10/02 06:39:49;;;;;;;57.97;2.70;;;12.70;1.00;;;;;;5133368;27;20488;-68
2021/10/02 06:42:16;;;;;;;58.10;2.50;;;12.80;1.00;;;;;;5133346;27;20469;-68
2021/10/02 06:44:43;;;;;;;60.33;2.70;;;12.90;1.00;;;;;;5133632;27;20444;-69
2021/10/02 06:47:10;;;;;;;58.07;2.80;;;12.80;1.00;;;;;;5133153;27;20447;-68
2021/10/02 06:49:38;;;;;;;58.20;2.70;;;12.90;1.00;;;;;;5133326;27;20534;-70
2021/10/02 06:52:06;;;;;;;58.70;3.47;;;13.00;1.00;;;;;;5133393;27;20440;-70
2021/10/02 06:54:32;;;;;;;58.17;2.60;;;13.10;1.00;;;;;;5133192;27;20449;-68
2021/10/02 06:56:59;;;;;;;58.60;2.77;;;13.20;1.00;;;;;;5129212;27;20547;-69
2021/10/02 06:59:27;;;;;;;58.30;2.90;;;13.30;1.00;;;;;;5133144;27;20496;-69
2021/10/02 07:01:55;;;;;;;57.97;2.40;;;13.30;1.00;;;;;;5129662;27;20476;-69
2021/10/02 07:04:22;;;;;;;58.17;2.70;;;13.30;1.00;;;;;;5112863;27;20552;-69
2021/10/02 07:06:50;;;;;;;58.13;2.40;;;13.40;1.00;;;;;;5113226;28;20476;-71
2021/10/02 07:09:17;;;;;;;58.23;2.70;;;13.60;1.00;;;;;;5112069;28;20473;-70
2021/10/02 07:11:43;;;;;;;58.23;2.90;;;13.70;1.00;;;;;;5112298;28;20441;-70
2021/10/02 07:14:10;;;;;;;58.20;2.73;;;13.70;1.00;;;;;;5112087;28;21044;-70
2021/10/02 07:16:37;;;;;;;58.20;2.90;;;13.90;1.00;;;;;;5111762;28;20529;-71
2021/10/02 07:19:04;;;;;;;58.17;2.80;;;13.90;1.00;;;;;;5111940;28;20481;-72
2021/10/02 07:21:31;;;;;;;58.27;3.13;;;13.90;1.00;;;;;;5111979;28;20489;-72
2021/10/02 07:23:59;;;;;;;58.07;2.50;;;13.80;1.00;;;;;;5111812;28;20453;-72
2021/10/02 07:26:27;;;;;;;58.30;2.90;;;13.70;1.00;;;;;;5111938;28;20470;-72
2021/10/02 07:28:54;;;;;;;58.07;2.60;;;13.70;1.00;;;;;;5111855;28;20556;-73
2021/10/02 07:31:21;;;;;;;57.87;2.50;;;13.70;1.00;;;;;;5111898;28;20525;-73
2021/10/02 07:33:49;;;;;;;58.27;2.70;;;13.70;1.00;;;;;;5113789;27;20931;-73
2021/10/02 07:36:16;;;;;;;58.33;2.67;;;13.70;1.00;;;;;;5131774;28;20446;-72
2021/10/02 07:38:43;;;;;;;58.37;2.90;;;13.70;1.00;;;;;;5132747;28;20492;-72
2021/10/02 07:41:12;;;;;;;57.77;2.63;;;13.70;1.00;;;;;;5134072;28;20913;-72
2021/10/02 07:43:41;;;;;;;57.83;2.50;;;13.70;1.00;;;;;;5139686;28;20535;-72
2021/10/02 07:46:11;;;;;;;58.87;3.33;;;13.70;1.00;;;;;;5138324;28;20452;-72
2021/10/02 07:48:40;;;;;;;57.97;2.43;;;13.70;1.00;;;;;;5138926;28;21048;-73
2021/10/02 07:51:07;;;;;;;57.87;2.50;;;13.80;1.00;;;;;;5139368;28;20440;-73
2021/10/02 07:53:35;;;;;;;58.07;2.50;;;13.80;1.00;;;;;;5138701;28;20962;-73
2021/10/02 07:56:03;;;;;;;58.13;2.47;;;13.80;1.00;;;;;;5138682;28;20500;-72
2021/10/02 07:58:31;;;;;;;58.07;2.63;;;13.90;1.00;;;;;;5137300;28;20460;-72
2021/10/02 08:00:58;;;;;;;60.20;3.47;;;14.00;1.00;;;;;;5139456;28;20447;-72
2021/10/02 08:03:26;;;;;;;58.07;2.50;;;14.10;1.00;;;;;;5132615;28;20444;-72
2021/10/02 08:05:53;;;;;;;58.20;2.67;;;14.10;1.00;;;;;;5130118;27;20560;-72
2021/10/02 08:08:21;;;;;;;58.10;2.33;;;14.20;1.00;;;;;;5132641;28;20492;-72
2021/10/02 08:10:50;;;;;;;58.00;2.50;;;14.30;1.00;;;;;;5132735;28;20527;-73
2021/10/02 08:13:18;;;;;;;58.40;3.20;;;14.40;1.00;;;;;;5132363;28;20437;-73
2021/10/02 08:15:50;;;;;;;57.93;2.47;;;14.50;1.00;;;;;;5131753;28;20726;-73
2021/10/02 08:18:18;;;;;;;58.27;2.63;;;14.60;1.00;;;;;;5132165;28;20467;-73
2021/10/02 08:20:46;;;;;;;58.17;2.70;;;14.80;1.00;;;;;;5132138;28;20444;-73
2021/10/02 08:23:15;;;;;;;57.77;2.80;;;15.00;1.00;;;;;;5131769;28;20500;-73
2021/10/02 08:25:47;;;;;;;58.07;2.63;;;15.10;1.00;;;;;;5131919;28;20920;-73
2021/10/02 08:28:14;;;;;;;58.17;2.70;;;15.30;1.00;;;;;;5132680;27;20461;-73
2021/10/02 08:30:42;;;;;;;58.70;3.00;;;15.40;1.00;;;;;;5136502;27;20553;-73
2021/10/02 08:33:11;;;;;;;58.07;2.60;;;15.50;1.00;;;;;;5136076;27;20524;-71
2021/10/02 08:35:38;;;;;;;58.30;3.10;;;15.70;1.00;;;;;;5135456;27;20538;-71
2021/10/02 08:38:05;;;;;;;58.60;3.47;;;15.80;1.00;;;;;;5133268;27;20517;-72
2021/10/02 08:40:32;;;;;;;58.10;2.40;;;16.00;1.00;;;;;;5135536;27;20442;-72
2021/10/02 08:42:59;;;;;;;58.17;2.33;;;16.10;1.00;;;;;;5135510;27;20848;-72
2021/10/02 08:45:28;;;;;;;59.00;3.10;;;16.30;1.00;;;;;;5135688;27;20451;-72
2021/10/02 08:47:57;;;;;;;59.17;3.47;;;16.40;1.00;;;;;;5135831;27;20470;-72
2021/10/02 08:50:28;;;;;;;58.40;2.87;;;16.50;1.00;;;;;;5135684;27;20449;-73
2021/10/02 08:52:56;;;;;;;58.80;3.70;;;16.60;1.00;;;;;;5135759;27;20530;-70
2021/10/02 08:55:24;;;;;;;58.30;2.77;;;16.70;1.00;;;;;;5135047;27;20455;-71
2021/10/02 08:57:53;;;;;;;57.97;2.93;;;16.90;1.00;;;;;;5135258;27;20463;-72
2021/10/02 09:00:22;;;;;;;57.97;2.80;;;17.00;1.00;;;;;;5135366;27;20446;-72
2021/10/02 09:02:50;;;;;;;58.37;2.60;;;17.10;1.00;;;;;;5135257;27;20485;-72
2021/10/02 09:05:18;;;;;;;58.00;2.60;;;17.20;1.00;;;;;;5135518;27;20534;-72
2021/10/02 09:07:50;;;;;;;58.03;2.47;;;17.40;1.00;;;;;;5134775;27;20475;-72
2021/10/02 09:10:18;;;;;;;58.20;2.40;;;17.50;1.00;;;;;;5133668;27;20454;-72
2021/10/02 09:12:46;;;;;;;57.97;2.40;;;17.70;1.00;;;;;;5135467;27;20446;-72
2021/10/02 09:15:14;;;;;;;57.60;2.50;;;17.90;1.00;;;;;;5134989;27;20483;-72
2021/10/02 09:17:42;;;;;;;57.50;2.40;;;18.10;1.00;;;;;;5134604;27;20490;-72
2021/10/02 09:20:10;;;;;;;57.87;2.50;;;18.30;1.00;;;;;;5134596;27;20527;-74
2021/10/02 09:22:37;;;;;;;58.07;3.03;;;18.60;1.00;;;;;;5134856;27;20511;-71
2021/10/02 09:25:10;;;;;;;57.77;2.57;;;18.70;1.00;;;;;;5134959;27;20466;-72
2021/10/02 09:27:38;;;;;;;58.07;2.87;;;19.00;1.00;;;;;;5134782;27;20463;-72
2021/10/02 09:30:08;;;;;;;58.27;2.47;;;19.20;1.00;;;;;;5135029;27;20451;-73
2021/10/02 09:32:38;;;;;;;58.30;2.50;;;19.40;1.00;;;;;;5134389;27;20449;-73
2021/10/02 09:35:10;;;;;;;58.37;2.60;;;19.50;1.00;;;;;;5134000;27;20429;-73
2021/10/02 09:37:38;;;;;;;57.90;2.50;;;19.70;1.00;;;;;;5134276;27;20472;-72
2021/10/02 09:40:10;;;;;;;58.10;2.40;;;19.90;1.00;;;;;;5132623;27;20609;-71
2021/10/02 09:42:39;;;;;;;57.93;2.40;;;20.40;1.00;;;;;;5134351;27;20578;-72
2021/10/02 09:45:09;;;;;;;58.10;2.80;;;21.20;1.00;;;;;;5134407;27;20893;-72
2021/10/02 09:47:37;;;;;;;57.60;2.60;;;22.00;1.00;;;;;;5134332;27;20465;-70
2021/10/02 09:50:09;;;;;;;57.77;2.30;;;23.10;1.00;;;;;;5133995;27;20458;-72
2021/10/02 09:52:38;;;;;;;57.80;2.30;;;23.90;1.00;;;;;;5134492;27;20489;-70
2021/10/02 09:55:26;;;;;;;57.93;2.20;;;24.70;1.00;;;;;;5134384;27;20520;-70
2021/10/02 09:57:56;;;;;;;57.77;2.20;;;25.50;1.00;;;;;;5133796;27;20583;-71
2021/10/02 10:00:25;;;;;;;57.97;2.30;;;26.10;1.00;;;;;;5133947;27;20526;-71
2021/10/02 10:02:54;;;;;;;57.87;2.27;;;26.80;1.00;;;;;;5133925;27;20570;-72
2021/10/02 10:05:26;;;;;;;57.87;2.37;;;27.30;1.00;;;;;;5134306;27;20449;-72
2021/10/02 10:07:55;;;;;;;57.77;2.47;;;27.70;1.00;;;;;;5134096;27;20555;-72
2021/10/02 10:10:26;;;;;;;58.83;2.30;;;28.20;1.00;;;;;;5133871;27;20451;-72
2021/10/02 10:12:52;;;;;;;57.43;2.20;;;28.40;1.00;;;;;;5132612;27;20887;-72
2021/10/02 10:15:31;;;;;;;58.83;2.90;;;28.50;1.00;;;;;;5134067;27;20532;-72
2021/10/02 10:17:59;;;;;;;57.80;2.50;;;28.50;1.00;;;;;;5133406;27;20505;-72
2021/10/02 10:20:40;;;;;;;57.80;2.30;;;28.70;1.00;;;;;;5133537;27;20536;-72
2021/10/02 10:23:08;;;;;;;58.30;2.80;;;29.00;1.00;;;;;;5133311;27;20695;-72
2021/10/02 10:25:49;;;;;;;58.13;2.23;;;29.20;1.00;;;;;;5133522;27;20456;-71
2021/10/02 10:28:19;;;;;;;57.37;2.23;;;29.50;1.00;;;;;;5134348;27;20529;-71
2021/10/02 10:30:48;;;;;;;57.37;2.30;;;29.80;1.00;;;;;;5133904;27;20455;-71
2021/10/02 10:33:15;;;;;;;57.60;2.30;;;30.20;1.00;;;;;;5133474;27;20528;-71
2021/10/02 10:35:45;;;;;;;57.80;2.47;;;30.40;1.00;;;;;;5133167;27;21007;-70
2021/10/02 10:38:16;;;;;;;57.93;2.70;;;30.50;1.00;;;;;;5133178;27;20470;-70
2021/10/02 10:40:44;;;;;;;57.60;2.40;;;30.50;1.00;;;;;;5133167;27;20959;-71
2021/10/02 10:43:12;;;;;;;57.57;2.10;;;30.40;1.00;;;;;;5133323;27;20488;-70
2021/10/02 10:45:40;;;;;;;57.70;2.20;;;30.60;1.00;;;;;;5131149;27;20538;-70
2021/10/02 10:48:08;;;;;;;57.03;2.00;;;31.20;1.00;;;;;;5133578;27;20461;-71
2021/10/02 10:50:38;;;;;;;57.40;2.10;;;31.80;1.00;;;;;;5133307;27;20463;-71
2021/10/02 10:53:05;;;;;;;57.27;2.20;;;32.40;1.00;;;;;;5133196;27;20445;-71
2021/10/02 10:55:33;;;;;;;57.23;1.97;;;33.00;1.00;;;;;;5132883;27;20956;-72
2021/10/02 10:58:02;;;;;;;57.07;2.03;;;33.50;1.00;;;;;;5132731;27;20457;-71
2021/10/02 11:00:43;;;;;;;57.17;1.93;;;33.80;1.00;;;;;;5132539;27;20445;-72
2021/10/02 11:03:11;;;;;;;57.20;1.90;;;33.80;1.00;;;;;;5132908;27;20487;-71
2021/10/02 11:05:52;;;;;;;56.90;2.10;;;33.60;1.00;;;;;;5132514;27;20491;-71
2021/10/02 11:08:24;;;;;;;57.07;1.90;;;34.10;1.00;;;;;;5133152;27;20557;-71
2021/10/02 11:10:59;;;;;;;57.17;2.10;;;34.40;1.00;;;;;;5132824;27;20480;-71
2021/10/02 11:13:56;;;;;;;56.97;2.00;;;34.40;1.00;;;;;;5133199;27;20860;-71
2021/10/02 11:16:40;;;;;;;57.13;2.20;;;34.60;1.00;;;;;;5118681;27;20454;-71
2021/10/02 11:19:35;;;;;;;57.17;2.10;;;34.80;1.00;;;;;;5111606;28;20552;-71
2021/10/02 11:22:08;;;;;;;57.47;1.80;;;34.80;1.00;;;;;;5064950;28;20980;-72
2021/10/02 11:24:36;;;;;;;56.87;1.93;;;35.30;1.00;;;;;;5111856;28;20540;-71
2021/10/02 11:27:04;;;;;;;56.93;2.10;;;35.20;1.00;;;;;;5111555;28;20517;-72
2021/10/02 11:29:35;;;;;;;58.40;2.47;;;35.10;1.00;;;;;;5111813;28;20848;-71
2021/10/02 11:32:29;;;;;;;56.93;2.00;;;34.90;1.00;;;;;;5112188;28;20445;-71
2021/10/02 11:35:14;;;;;;;58.10;2.10;;;34.80;1.00;;;;;;5112288;28;20442;-71
2021/10/02 11:37:44;;;;;;;57.10;2.00;;;34.80;1.00;;;;;;5111553;28;20465;-72
2021/10/02 11:40:45;;;;;;;57.17;2.03;;;35.10;1.00;;;;;;5111882;28;20545;-71
2021/10/02 11:43:23;;;;;;;57.43;2.33;;;34.80;1.00;;;;;;5112085;28;20477;-72
2021/10/02 11:46:04;;;;;;;57.20;2.20;;;34.40;1.00;;;;;;5111202;28;20481;-72
2021/10/02 11:48:44;;;;;;;57.00;1.93;;;33.80;1.00;;;;;;5128370;27;20460;-71
2021/10/02 11:51:31;;;;;;;57.30;2.47;;;33.50;1.00;;;;;;5132532;28;20557;-72
2021/10/02 11:54:16;;;;;;;57.07;2.00;;;33.60;1.00;;;;;;5124483;28;20543;-72
2021/10/02 11:56:43;;;;;;;58.67;2.73;;;33.80;1.00;;;;;;5128167;28;20505;-71
2021/10/02 11:59:11;;;;;;;57.03;2.10;;;34.70;1.00;;;;;;5132215;28;20547;-71
2021/10/02 12:01:42;;;;;;;56.80;2.17;;;35.80;1.00;;;;;;5132147;28;20580;-72
2021/10/02 12:04:12;;;;;;;56.70;1.90;;;36.30;1.00;;;;;;5135907;27;20575;-72
2021/10/02 12:06:41;;;;;;;57.17;2.20;;;36.30;1.00;;;;;;5136093;27;20437;-71
2021/10/02 12:09:11;;;;;;;56.90;2.00;;;36.50;1.00;;;;;;5136133;27;20552;-72
2021/10/02 12:11:45;;;;;;;56.87;2.07;;;36.80;1.00;;;;;;5136361;27;20878;-72
2021/10/02 12:14:17;;;;;;;56.97;2.30;;;36.80;1.00;;;;;;5136388;27;20494;-69
2021/10/02 12:16:51;;;;;;;57.40;2.20;;;36.80;1.00;;;;;;5136163;27;20871;-71
2021/10/02 12:19:21;;;;;;;57.10;1.90;;;36.50;1.00;;;;;;5133517;27;20476;-72
2021/10/02 12:21:49;;;;;;;56.67;1.80;;;36.30;1.00;;;;;;5135882;27;20482;-71
2021/10/02 12:24:20;;;;;;;57.10;2.20;;;36.30;1.00;;;;;;5135534;27;20476;-71
2021/10/02 12:26:50;;;;;;;57.93;2.27;;;36.40;1.00;;;;;;5135673;27;20940;-71
2021/10/02 12:29:21;;;;;;;57.20;2.20;;;37.10;1.00;;;;;;5136499;27;20499;-71
2021/10/02 12:31:59;;;;;;;56.83;2.23;;;37.10;1.00;;;;;;5136002;27;20440;-72
2021/10/02 12:34:28;;;;;;;57.07;2.23;;;36.70;1.00;;;;;;5135911;27;20479;-72
2021/10/02 12:36:57;;;;;;;56.90;1.83;;;36.00;1.00;;;;;;5135498;27;20519;-72
2021/10/02 12:39:33;;;;;;;57.30;2.20;;;35.10;1.00;;;;;;5135719;27;20472;-72
2021/10/02 12:42:01;;;;;;;56.93;1.90;;;34.90;1.00;;;;;;5135665;27;20440;-71
2021/10/02 12:44:29;;;;;;;57.37;2.30;;;34.80;1.00;;;;;;5135238;27;20519;-72
2021/10/02 12:46:59;;;;;;;57.40;2.40;;;34.40;1.00;;;;;;5135574;27;20455;-72
2021/10/02 12:49:27;;;;;;;57.70;1.97;;;33.80;1.00;;;;;;5135214;27;20472;-72
2021/10/02 12:51:55;;;;;;;58.27;2.40;;;33.30;1.00;;;;;;5134675;27;20441;-72
2021/10/02 12:54:27;;;;;;;57.77;2.20;;;32.50;1.00;;;;;;5135101;27;20479;-71
2021/10/02 12:57:13;;;;;;;57.53;2.20;;;31.70;1.00;;;;;;5134590;27;20535;-72
2021/10/02 12:59:49;;;;;;;58.30;2.60;;;30.90;1.00;;;;;;5136038;27;20444;-72
2021/10/02 13:02:19;;;;;;;57.70;1.90;;;30.50;1.00;;;;;;5135430;27;20445;-72
2021/10/02 13:04:46;;;;;;;57.77;2.40;;;30.30;1.00;;;;;;5135057;27;21039;-72
2021/10/02 13:07:26;;;;;;;57.70;2.30;;;30.30;1.00;;;;;;5134793;27;20870;-72
2021/10/02 13:09:58;;;;;;;57.67;2.10;;;30.20;1.00;;;;;;5135557;27;20485;-72
2021/10/02 13:12:28;;;;;;;57.60;2.10;;;30.20;1.00;;;;;;5135241;27;20944;-72
2021/10/02 13:14:56;;;;;;;57.37;1.90;;;30.60;1.00;;;;;;5134706;27;20475;-72
2021/10/02 13:17:25;;;;;;;57.27;1.83;;;31.10;1.00;;;;;;5134542;27;20447;-72
2021/10/02 13:20:09;;;;;;;57.60;2.33;;;31.70;1.00;;;;;;5134619;27;20539;-72
2021/10/02 13:22:46;;;;;;;57.03;1.80;;;32.40;1.00;;;;;;5132971;27;20460;-72
2021/10/02 13:25:17;;;;;;;57.20;2.07;;;32.70;1.00;;;;;;5134601;27;20456;-72
2021/10/02 13:27:46;;;;;;;57.30;2.10;;;33.20;1.00;;;;;;5134532;27;20466;-72
2021/10/02 13:30:16;;;;;;;57.17;2.10;;;33.40;1.00;;;;;;5134777;27;20539;-72
2021/10/02 13:32:56;;;;;;;57.00;2.10;;;34.40;1.00;;;;;;5135223;27;20455;-71
2021/10/02 13:35:24;;;;;;;57.00;2.00;;;35.60;1.00;;;;;;5134845;27;20448;-72
2021/10/02 13:37:51;;;;;;;57.40;2.30;;;36.70;1.00;;;;;;5134463;27;20468;-72
2021/10/02 13:40:24;;;;;;;56.77;1.90;;;37.60;1.00;;;;;;5134244;27;20898;-72
2021/10/02 13:42:51;;;;;;;56.80;1.90;;;37.90;1.00;;;;;;5134230;27;20449;-72
2021/10/02 13:45:23;;;;;;;58.00;2.03;;;37.70;1.00;;;;;;5134508;27;20475;-72
2021/10/02 13:48:06;;;;;;;57.20;2.33;;;37.50;1.00;;;;;;5133677;27;20463;-72
2021/10/02 13:50:34;;;;;;;57.17;2.40;;;37.20;1.00;;;;;;5134462;27;20965;-72